Portada
METAR-TAF:

METAR-TAF

Aeroports :

Mataram, Indonèsia

latitud: 08-45-29S, longitud: 116-16-35E, altitud: 97 m

Observació

L'informe es va fer fa 8 minuts, a les 22:30 UTC
Vent 3 kt del Est
Temperatura 25°C
Humitat 94%
Pressió 1012 hPa
Visibilitat: 7000 m
Cel ennuvolat a una alçada de 1600 ft

METAR: WADL 202230Z 08003KT 7000 BKN016 25/24 Q1012 NOSIG

Hora: 05:38 (22:38 UTC)

Pronòstic

L'informe es va fer fa 5 hores i 38 minuts, a les 17:00 UTC
Pronòstic vàlid del 20 a les 18 UTC al 21 a les 18 UTC
Vent kt del Nord
Visibilitat: 7000 m
Cel ennuvolat a una alçada de 1600 ft

TAF: WADL 201700Z 2018/2118 00000KT 7000 BKN016

Observacions i pronòstics meteorològics de més de 4000 aeroports (METAR i TAF).

Les estacions disponibles són els punts grocs i vermells al mapa.

Posi el ratolí al punt desitjat per veure el nom de l'estació.

Feu clic per veure les observacions i els pronòstics meteorològics.

Per canviar el mapa: feu clic els botons verds amb una creu de color negre per apropar; al botó verd amb un guió per allunyar la imatge; o en les fletxes verdes per a mapes adjacents.


METAR-TAF: